Time;durP1;ratioP1;P1;durP2;ratioP2;P2;SDS_P1;SDS_P2;PMS_P1;PMS_P2;Temp;Humidity;BMP_temperature;BMP_pressure;BME280_temperature;BME280_humidity;BME280_pressure;Samples;Min_cycle;Max_cycle;Signal;HPM_P1;HPM_P2
2022/01/09 02:19:44;;;;;;;;;;;;;;;;;;;;;
2022/01/09 02:26:49;;;;;;;;;;;;;;;;;;;;;
2022/01/09 02:30:14;;;;;;;;;;;;;;;;;;;;;
2022/01/09 03:48:51;;;;;;;;;;;;;;;;;;;;;
2022/01/09 06:56:47;;;;;;;;;;;;;;;;;;;;;
2022/01/09 07:07:05;;;;;;;;;;;;;;;;;;;;;
2022/01/09 07:10:36;;;;;;;;;;;;;;;;;;;;;
2022/01/09 07:17:25;;;;;;;;;;;;;;;;;;;;;
2022/01/09 07:23:54;;;;;;;15.03;4.97;;;;;;;11.03;79.04;98171.72;5671893;25;20237;-89
2022/01/09 07:26:44;;;;;;;;;;;;;;;;;;;;;
2022/01/09 07:33:08;;;;;;;16.13;6.00;;;;;;;10.94;79.65;98162.69;5820394;24;20711;-90
2022/01/09 07:36:30;;;;;;;;;;;;;;;;;;;;;
2022/01/09 07:39:50;;;;;;;;;;;;;;;;;;;;;
2022/01/09 07:46:23;;;;;;;24.03;6.77;;;;;;;11.29;79.07;98141.88;6077552;23;20152;-90
2022/01/09 07:57:09;;;;;;;;;;;;;;;;;;;;;
2022/01/09 08:00:03;;;;;;;;;;;;;;;;;;;;;
2022/01/09 08:03:44;;;;;;;;;;;;;;;;;;;;;
2022/01/09 08:07:05;;;;;;;;;;;;;;;;;;;;;
2022/01/09 08:18:23;;;;;;;;;;;;;;;;;;;;;
2022/01/09 08:20:39;;;;;;;20.40;8.33;;;;;;;10.95;80.60;98108.47;5869366;24;20188;-90
2022/01/09 08:27:00;;;;;;;27.83;11.07;;;;;;;11.26;80.20;98089.63;5880864;24;20618;-90
2022/01/09 08:29:56;;;;;;;35.87;11.30;;;;;;;11.36;79.69;98084.53;5898954;24;20328;-89
2022/01/09 08:32:34;;;;;;;28.70;11.43;;;;;;;11.41;80.12;98087.66;5927868;23;20258;-91
2022/01/09 08:35:04;;;;;;;27.97;12.53;;;;;;;11.42;80.07;98095.44;5986058;23;20162;-90
2022/01/09 08:37:33;;;;;;;25.43;10.33;;;;;;;11.47;79.91;98090.69;6009612;23;20165;-89
2022/01/09 08:40:04;;;;;;;31.70;10.47;;;;;;;11.52;79.74;98083.31;6001194;23;20166;-89
2022/01/09 08:42:32;;;;;;;30.57;10.57;;;;;;;11.56;79.91;98084.75;6125272;23;20526;-89
2022/01/09 08:45:00;;;;;;;24.07;10.20;;;;;;;11.66;79.58;98087.56;6125150;23;20152;-89
2022/01/09 08:47:59;;;;;;;;;;;;;;;;;;;;;
2022/01/09 08:50:42;;;;;;;;;;;;;;;;;;;;;
2022/01/09 08:53:39;;;;;;;38.83;10.00;;;;;;;11.47;79.13;98071.50;6127025;23;20517;-90
2022/01/09 08:56:19;;;;;;;37.03;12.53;;;;;;;11.54;79.20;98086.66;6125797;23;20565;-90
2022/01/09 08:58:53;;;;;;;35.23;11.50;;;;;;;11.57;79.49;98088.22;6125074;23;20222;-89
2022/01/09 09:01:34;;;;;;;35.00;11.37;;;;;;;11.58;79.07;98090.72;6126961;23;20172;-89
2022/01/09 09:04:26;;;;;;;;;;;;;;;;;;;;;
2022/01/09 09:07:11;;;;;;;32.30;11.73;;;;;;;11.67;78.75;98095.31;6126410;23;20259;-89
2022/01/09 09:09:53;;;;;;;;;;;;;;;;;;;;;
2022/01/09 09:12:22;;;;;;;15.33;6.83;;;;;;;11.71;77.63;98086.28;6126816;23;20235;-89
2022/01/09 09:15:10;;;;;;;;;;;;;;;;;;;;;
2022/01/09 09:17:36;;;;;;;16.80;5.47;;;;;;;11.57;77.75;98083.81;6126515;23;20222;-89
2022/01/09 09:20:05;;;;;;;15.97;6.47;;;;;;;11.48;77.88;98078.38;6125296;23;20171;-89
2022/01/09 09:22:40;;;;;;;12.77;4.53;;;;;;;11.45;77.72;98068.97;6125252;23;20190;-88
2022/01/09 09:25:06;;;;;;;18.03;6.10;;;;;;;11.17;78.56;98069.28;6126481;23;20203;-88
2022/01/09 09:27:34;;;;;;;13.60;4.97;;;;;;;11.12;79.96;98060.91;6126021;23;20210;-88
2022/01/09 09:30:04;;;;;;;11.43;4.27;;;;;;;11.09;80.20;98055.88;6125629;23;20229;-89
2022/01/09 09:32:30;;;;;;;24.20;5.97;;;;;;;11.02;80.55;98063.38;6124864;23;20160;-88
2022/01/09 09:34:56;;;;;;;16.67;6.03;;;;;;;10.88;80.79;98054.78;6126427;23;20151;-88
2022/01/09 09:37:22;;;;;;;14.40;6.67;;;;;;;10.91;81.24;98062.44;6125232;23;20152;-88
2022/01/09 09:39:51;;;;;;;8.87;3.27;;;;;;;10.90;81.45;98058.97;6126737;23;20152;-88
2022/01/09 09:42:16;;;;;;;16.47;5.67;;;;;;;10.98;81.33;98063.66;6126469;23;20152;-91
2022/01/09 09:44:42;;;;;;;20.07;6.87;;;;;;;11.06;81.08;98066.59;6124817;23;20159;-89
2022/01/09 09:47:10;;;;;;;22.00;6.33;;;;;;;11.10;80.95;98053.16;6125476;23;20179;-88
2022/01/09 09:49:35;;;;;;;29.93;11.93;;;;;;;11.01;80.65;98056.44;6124862;23;20239;-89
2022/01/09 09:52:06;;;;;;;119.47;44.40;;;;;;;11.02;81.14;98050.25;6125996;23;20190;-88
2022/01/09 09:54:32;;;;;;;26.27;14.67;;;;;;;11.10;80.92;98052.31;6126345;23;20580;-88
2022/01/09 09:56:57;;;;;;;15.33;6.83;;;;;;;11.03;80.28;98033.56;6124731;23;20156;-88
2022/01/09 09:59:28;;;;;;;15.17;5.40;;;;;;;10.94;81.37;98031.59;6124834;23;20152;-88
2022/01/09 10:01:54;;;;;;;17.13;5.63;;;;;;;10.64;81.76;98018.03;6125108;23;20152;-87
2022/01/09 10:04:19;;;;;;;23.97;8.27;;;;;;;10.70;82.62;98012.38;6126347;23;20669;-88
2022/01/09 10:06:49;;;;;;;22.30;8.87;;;;;;;10.78;82.96;98011.84;6128016;23;20172;-88
2022/01/09 10:09:19;;;;;;;18.47;6.57;;;;;;;10.71;83.31;98015.84;6127806;23;20587;-87
2022/01/09 10:11:55;;;;;;;18.47;7.57;;;;;;;10.78;83.01;98017.91;6128088;23;20136;-88
2022/01/09 10:14:32;;;;;;;14.67;7.43;;;;;;;10.72;82.65;98012.25;6127723;23;20208;-88
2022/01/09 10:17:05;;;;;;;20.33;7.50;;;;;;;10.70;83.13;98004.53;6126682;23;20536;-88
2022/01/09 10:19:45;;;;;;;15.43;6.43;;;;;;;10.70;82.51;98004.53;6128027;23;20144;-88
2022/01/09 10:22:43;;;;;;;21.17;6.63;;;;;;;10.75;82.33;97999.78;6126525;23;20143;-90
2022/01/09 10:25:30;;;;;;;12.33;6.07;;;;;;;10.81;82.17;98001.97;6127607;23;20140;-90
2022/01/09 10:28:25;;;;;;;11.70;6.53;;;;;;;10.87;82.75;97983.19;6127891;23;20171;-90
2022/01/09 10:30:52;;;;;;;15.20;5.67;;;;;;;10.89;82.83;97991.78;6127393;23;20159;-90
2022/01/09 10:33:26;;;;;;;17.77;6.67;;;;;;;10.99;82.59;97976.22;6126336;23;20539;-92
2022/01/09 10:35:52;;;;;;;17.33;6.30;;;;;;;11.01;82.38;97979.56;6127382;23;20536;-88
2022/01/09 10:38:30;;;;;;;19.17;7.20;;;;;;;10.96;82.61;97966.78;6126265;23;20156;-88
2022/01/09 10:40:58;;;;;;;15.57;6.03;;;;;;;10.91;82.47;97968.06;6127840;23;20140;-88
2022/01/09 10:43:26;;;;;;;20.27;6.47;;;;;;;10.89;82.58;97959.50;6127457;23;20640;-88
2022/01/09 10:46:01;;;;;;;22.60;7.43;;;;;;;10.97;82.57;97972.88;6126228;23;20152;-88
2022/01/09 10:48:33;;;;;;;19.23;7.97;;;;;;;11.05;82.66;97974.00;6127438;23;20139;-89
2022/01/09 10:51:00;;;;;;;12.23;7.27;;;;;;;11.16;82.40;97972.38;6127447;23;20175;-89
2022/01/09 10:53:34;;;;;;;29.10;9.40;;;;;;;11.16;82.60;97967.97;6127612;23;20215;-89
2022/01/09 10:56:13;;;;;;;15.87;7.60;;;;;;;11.25;82.55;97963.81;6126232;23;20152;-89
2022/01/09 10:58:50;;;;;;;28.07;8.17;;;;;;;11.28;82.42;97956.56;6127685;23;20563;-88
2022/01/09 11:01:20;;;;;;;22.53;7.70;;;;;;;11.18;81.94;97960.81;6127626;23;20148;-88
2022/01/09 11:03:49;;;;;;;18.43;7.30;;;;;;;11.10;82.27;97950.06;6126091;23;20218;-88
2022/01/09 11:06:15;;;;;;;21.80;7.07;;;;;;;11.11;82.94;97951.72;6125935;23;20156;-88
2022/01/09 11:08:42;;;;;;;16.03;5.70;;;;;;;11.10;82.69;97955.31;6127181;23;20179;-88
2022/01/09 11:14:04;;;;;;;16.33;6.20;;;;;;;10.86;83.71;97950.06;6118954;23;20168;-88
2022/01/09 11:16:36;;;;;;;29.20;5.97;;;;;;;10.70;84.55;97943.41;6125901;23;20226;-88
2022/01/09 11:19:06;;;;;;;19.17;7.93;;;;;;;10.68;84.96;97932.19;6127164;23;20615;-89
2022/01/09 11:21:32;;;;;;;18.07;7.33;;;;;;;10.71;85.05;97930.22;6126607;23;20522;-88
2022/01/09 11:24:06;;;;;;;13.87;5.73;;;;;;;10.73;85.37;97930.09;6127025;23;20148;-88
2022/01/09 11:26:44;;;;;;;22.40;7.43;;;;;;;10.81;85.18;97925.13;6127729;23;20159;-87
2022/01/09 11:29:14;;;;;;;16.93;7.23;;;;;;;10.96;84.78;97918.75;6128067;23;20223;-88
2022/01/09 11:31:54;;;;;;;10.33;5.30;;;;;;;10.66;84.68;97910.53;6125814;23;20191;-88
2022/01/09 11:34:39;;;;;;;15.40;5.03;;;;;;;10.67;84.96;97910.41;6125835;23;20610;-88
2022/01/09 11:37:27;;;;;;;13.70;6.50;;;;;;;10.67;85.23;97907.78;6125789;23;20143;-88
2022/01/09 11:39:53;;;;;;;28.20;8.30;;;;;;;10.79;85.51;97911.31;6127254;23;20137;-88
2022/01/09 11:42:19;;;;;;;14.13;5.57;;;;;;;10.90;85.32;97908.75;6125703;23;20248;-88
2022/01/09 11:44:51;;;;;;;18.27;7.70;;;;;;;11.04;84.44;97904.16;6127559;23;20151;-88
2022/01/09 11:47:18;;;;;;;19.43;7.27;;;;;;;11.09;84.19;97903.78;6126862;23;20168;-88
2022/01/09 11:49:53;;;;;;;16.33;6.77;;;;;;;11.12;83.03;97906.19;6126771;23;20151;-88
2022/01/09 11:52:24;;;;;;;27.33;7.47;;;;;;;11.19;82.92;97902.16;6126732;23;20219;-88
2022/01/09 11:54:50;;;;;;;12.57;5.70;;;;;;;11.25;82.08;97906.13;6125626;23;20234;-88
2022/01/09 11:57:33;;;;;;;15.37;5.73;;;;;;;11.32;82.13;97908.16;6126738;23;20147;-88
2022/01/09 11:59:59;;;;;;;20.30;6.90;;;;;;;11.39;82.15;97906.75;6125560;23;20151;-88
2022/01/09 12:02:27;;;;;;;13.40;5.40;;;;;;;11.21;81.13;97900.28;6126228;23;20253;-88
2022/01/09 12:04:58;;;;;;;12.13;5.23;;;;;;;11.25;82.00;97893.84;6126605;23;20231;-88
2022/01/09 12:07:36;;;;;;;13.03;6.00;;;;;;;11.34;81.38;97897.56;6125395;23;20179;-87
2022/01/09 12:10:23;;;;;;;18.80;6.73;;;;;;;11.27;81.76;97901.63;6125375;23;20210;-88
2022/01/09 12:12:49;;;;;;;21.60;8.13;;;;;;;11.19;81.97;97899.53;6126725;23;20152;-87
2022/01/09 12:15:35;;;;;;;25.77;10.00;;;;;;;11.12;82.22;97893.09;6127146;23;20152;-87
2022/01/09 12:18:04;;;;;;;18.93;7.13;;;;;;;11.05;83.11;97891.88;6125461;23;20199;-88
2022/01/09 12:20:37;;;;;;;21.50;6.50;;;;;;;11.05;82.99;97897.13;6126480;23;20584;-88
2022/01/09 12:23:04;;;;;;;13.60;5.83;;;;;;;11.10;82.66;97895.84;6126857;23;20190;-90
2022/01/09 12:25:36;;;;;;;16.77;6.30;;;;;;;11.14;82.82;97887.75;6126242;23;20148;-88
2022/01/09 12:28:09;;;;;;;23.10;7.53;;;;;;;11.19;83.25;97888.22;6126616;23;20610;-88
2022/01/09 12:30:41;;;;;;;12.83;4.83;;;;;;;11.24;82.96;97879.03;6126769;23;20144;-88
2022/01/09 12:33:09;;;;;;;17.73;8.03;;;;;;;11.25;82.80;97883.34;6127083;23;20147;-88
2022/01/09 12:35:38;;;;;;;28.77;14.40;;;;;;;11.12;83.02;97882.59;6125237;23;20234;-88
2022/01/09 12:38:04;;;;;;;17.60;7.63;;;;;;;11.06;83.53;97877.78;6125181;23;20461;-88
2022/01/09 12:40:32;;;;;;;15.17;6.97;;;;;;;11.14;83.75;97872.81;6125165;23;20550;-88
2022/01/09 12:42:59;;;;;;;11.93;6.23;;;;;;;10.90;84.67;97877.28;6126698;23;20151;-88
2022/01/09 12:45:36;;;;;;;12.13;5.37;;;;;;;10.96;84.13;97875.03;6125124;23;20167;-88
2022/01/09 12:48:04;;;;;;;11.50;5.93;;;;;;;10.80;84.26;97873.66;6126934;23;20168;-88
2022/01/09 12:50:36;;;;;;;21.60;9.33;;;;;;;10.72;85.16;97879.44;6126556;23;20160;-88
2022/01/09 12:53:18;;;;;;;16.07;7.33;;;;;;;10.77;85.44;97887.00;6126270;23;20547;-88
2022/01/09 12:55:55;;;;;;;16.97;5.73;;;;;;;10.90;84.94;97891.22;6126290;23;20148;-88
2022/01/09 12:58:29;;;;;;;26.30;7.30;;;;;;;11.00;84.79;97892.22;6126580;23;20155;-88
2022/01/09 13:00:56;;;;;;;25.47;7.03;;;;;;;11.04;84.71;97892.81;6125005;23;20311;-88
2022/01/09 13:03:25;;;;;;;15.77;6.60;;;;;;;11.19;83.81;97891.66;6126179;23;20175;-88
2022/01/09 13:05:56;;;;;;;21.37;8.23;;;;;;;11.32;83.13;97881.13;6126502;23;20157;-88
2022/01/09 13:08:21;;;;;;;18.60;8.03;;;;;;;11.09;83.11;97877.56;6126191;23;20199;-88
2022/01/09 13:10:57;;;;;;;16.70;8.53;;;;;;;11.09;83.22;97877.56;6126188;23;20163;-89
2022/01/09 13:13:24;;;;;;;14.13;5.33;;;;;;;11.09;83.05;97872.31;6126160;23;20158;-88
2022/01/09 13:15:50;;;;;;;23.87;6.83;;;;;;;10.89;83.32;97875.59;6124947;23;20289;-88
2022/01/09 13:18:16;;;;;;;15.37;6.43;;;;;;;10.87;83.67;97867.03;6124808;23;20167;-88
2022/01/09 13:20:41;;;;;;;19.70;8.27;;;;;;;10.74;84.87;97868.88;6126135;23;20167;-87
2022/01/09 13:23:09;;;;;;;14.17;6.60;;;;;;;10.80;84.66;97865.78;6126497;23;20152;-88
2022/01/09 13:25:42;;;;;;;20.63;7.70;;;;;;;10.95;84.61;97869.91;6126133;23;20166;-88
2022/01/09 13:28:17;;;;;;;15.50;6.80;;;;;;;11.04;84.08;97858.72;6126066;23;20214;-88
2022/01/09 13:30:42;;;;;;;15.93;6.70;;;;;;;11.13;83.59;97862.47;6126780;23;20150;-88
2022/01/09 13:33:08;;;;;;;24.20;7.37;;;;;;;11.14;83.59;97859.72;6126079;23;20244;-88
2022/01/09 13:35:33;;;;;;;13.07;5.63;;;;;;;11.03;83.62;97851.84;6126371;23;20148;-88
2022/01/09 13:37:59;;;;;;;14.67;6.63;;;;;;;10.89;83.49;97850.22;6126324;23;20148;-88
2022/01/09 13:40:24;;;;;;;23.23;7.57;;;;;;;10.86;84.08;97849.63;6128725;23;20152;-87
2022/01/09 13:42:50;;;;;;;20.97;6.80;;;;;;;10.80;84.27;97844.81;6127980;23;20540;-88
2022/01/09 13:45:20;;;;;;;20.83;8.53;;;;;;;10.78;84.70;97844.09;6126811;23;20244;-87
2022/01/09 13:47:48;;;;;;;16.37;6.23;;;;;;;10.86;84.48;97844.38;6127938;23;20501;-88
2022/01/09 13:50:17;;;;;;;22.67;8.33;;;;;;;10.90;84.22;97843.22;6127919;23;20175;-88
2022/01/09 13:52:43;;;;;;;14.33;5.50;;;;;;;10.87;84.47;97840.81;6127935;23;20148;-88
2022/01/09 13:55:16;;;;;;;14.93;6.47;;;;;;;10.81;84.84;97849.13;6127878;23;20163;-88
2022/01/09 13:57:53;;;;;;;21.07;10.47;;;;;;;10.81;84.47;97854.34;6127868;23;20510;-87
2022/01/09 14:00:24;;;;;;;19.80;7.40;;;;;;;10.82;84.58;97851.63;6128250;23;20197;-88
2022/01/09 14:02:50;;;;;;;15.80;7.30;;;;;;;10.94;84.42;97858.59;6127807;23;20155;-87
2022/01/09 14:05:18;;;;;;;21.07;7.33;;;;;;;11.00;83.86;97852.06;6128079;23;20148;-88
2022/01/09 14:07:51;;;;;;;12.77;5.93;;;;;;;11.06;83.08;97856.81;6128690;23;20591;-88
2022/01/09 14:10:18;;;;;;;17.43;7.33;;;;;;;11.07;83.17;97853.25;6128037;23;20186;-88
2022/01/09 14:12:45;;;;;;;18.07;5.07;;;;;;;11.01;83.21;97838.81;6127720;23;20148;-88
2022/01/09 14:15:13;;;;;;;23.70;8.13;;;;;;;11.07;83.17;97845.41;6128727;23;20211;-88
2022/01/09 14:17:44;;;;;;;16.90;5.87;;;;;;;11.09;82.98;97843.50;6126700;23;20502;-88
2022/01/09 14:20:12;;;;;;;14.10;6.47;;;;;;;11.04;82.50;97835.97;6127698;23;20235;-88
2022/01/09 14:22:47;;;;;;;18.63;6.77;;;;;;;11.03;82.88;97836.09;6127650;23;20180;-88
2022/01/09 14:25:16;;;;;;;22.37;6.70;;;;;;;11.10;82.85;97843.38;6128312;23;20143;-88
2022/01/09 14:27:45;;;;;;;25.33;11.30;;;;;;;11.10;83.02;97842.53;6127835;23;20694;-88
2022/01/09 14:30:35;;;;;;;22.70;11.07;;;;;;;11.08;82.72;97842.66;6127844;23;20244;-88
2022/01/09 14:33:14;;;;;;;18.80;7.20;;;;;;;11.12;82.80;97845.88;6126339;23;20206;-88
2022/01/09 14:35:44;;;;;;;18.97;6.63;;;;;;;11.18;82.39;97832.31;6127885;23;20167;-88
2022/01/09 14:38:16;;;;;;;19.03;7.57;;;;;;;11.22;82.59;97830.28;6126283;23;20171;-88
2022/01/09 14:40:51;;;;;;;17.57;6.27;;;;;;;11.30;82.41;97843.66;6124914;23;20215;-88
2022/01/09 14:43:18;;;;;;;24.03;6.13;;;;;;;11.30;82.10;97843.66;6127442;23;20202;-88
2022/01/09 14:45:43;;;;;;;13.53;6.03;;;;;;;11.35;82.30;97831.84;6126119;23;20160;-88
2022/01/09 14:48:10;;;;;;;20.70;7.33;;;;;;;11.29;81.74;97837.59;6127192;23;20189;-88
2022/01/09 14:50:36;;;;;;;17.13;6.33;;;;;;;11.34;81.66;97829.38;6126972;23;20152;-88
2022/01/09 14:53:04;;;;;;;18.73;7.50;;;;;;;11.45;81.43;97837.25;6126039;23;20159;-89
2022/01/09 14:55:30;;;;;;;12.77;6.03;;;;;;;11.44;81.35;97833.78;6126480;23;20520;-88
2022/01/09 14:57:55;;;;;;;17.73;8.10;;;;;;;11.45;81.36;97832.81;6127226;23;20182;-88
2022/01/09 15:00:21;;;;;;;16.17;7.40;;;;;;;11.49;81.22;97831.66;6127015;23;20596;-88
2022/01/09 15:02:46;;;;;;;18.73;7.43;;;;;;;11.45;80.73;97827.56;6125927;23;20222;-88
2022/01/09 15:05:12;;;;;;;18.57;7.97;;;;;;;11.46;81.02;97834.50;6127087;23;20148;-89
2022/01/09 15:07:37;;;;;;;22.63;9.50;;;;;;;11.48;80.72;97837.00;6127381;23;20576;-88
2022/01/09 15:10:05;;;;;;;23.80;9.77;;;;;;;11.45;80.88;97824.13;6127138;23;20160;-88
2022/01/09 15:12:30;;;;;;;15.73;6.20;;;;;;;11.41;80.87;97835.81;6127297;23;20152;-88
2022/01/09 15:14:56;;;;;;;18.80;7.57;;;;;;;11.46;80.97;97834.50;6127094;23;20152;-88
2022/01/09 15:17:22;;;;;;;16.00;7.80;;;;;;;11.51;80.86;97834.16;6127103;23;20243;-89
2022/01/09 15:19:48;;;;;;;18.10;6.27;;;;;;;11.57;80.50;97821.41;6125958;23;20144;-88
2022/01/09 15:22:14;;;;;;;14.77;6.33;;;;;;;11.61;79.83;97821.97;6125523;23;20164;-89
2022/01/09 15:24:42;;;;;;;18.83;8.37;;;;;;;11.62;79.91;97819.25;6126957;23;20480;-88
2022/01/09 15:27:09;;;;;;;14.57;7.40;;;;;;;11.63;79.86;97822.72;6126807;23;20176;-88
2022/01/09 15:29:35;;;;;;;21.27;8.30;;;;;;;11.64;79.94;97825.22;6125695;23;20572;-89
2022/01/09 15:32:01;;;;;;;29.97;10.57;;;;;;;11.62;79.75;97827.13;6127299;23;20166;-88
2022/01/09 15:34:27;;;;;;;19.13;7.00;;;;;;;11.62;79.60;97824.50;6126728;23;20148;-88
2022/01/09 15:36:53;;;;;;;27.90;9.93;;;;;;;11.63;79.79;97828.78;6126352;23;20662;-88
2022/01/09 15:39:19;;;;;;;29.37;10.37;;;;;;;11.65;79.50;97824.28;6126841;23;20618;-88
2022/01/09 15:41:44;;;;;;;23.17;7.87;;;;;;;11.63;79.89;97825.34;6126573;23;20151;-88
2022/01/09 15:44:11;;;;;;;16.17;6.77;;;;;;;11.70;79.40;97826.56;6126712;23;20579;-88
2022/01/09 15:46:37;;;;;;;15.37;5.50;;;;;;;11.69;79.50;97828.34;6127240;23;20179;-88
2022/01/09 15:49:03;;;;;;;14.97;6.60;;;;;;;11.65;79.70;97824.28;6126622;23;20241;-89
2022/01/09 15:51:29;;;;;;;17.37;6.40;;;;;;;11.64;79.41;97830.47;6127047;23;20619;-89
2022/01/09 15:53:57;;;;;;;12.90;6.37;;;;;;;11.68;79.16;97829.31;6125462;23;20211;-88
2022/01/09 15:56:23;;;;;;;15.97;7.47;;;;;;;11.67;79.16;97829.38;6125376;23;20166;-89
2022/01/09 15:58:54;;;;;;;17.07;6.53;;;;;;;11.69;79.12;97836.22;6127075;23;20170;-89
2022/01/09 16:01:23;;;;;;;17.60;6.67;;;;;;;11.69;79.09;97836.22;6126243;23;20136;-89
2022/01/09 16:03:52;;;;;;;12.40;5.10;;;;;;;11.67;79.17;97838.09;6125844;23;20546;-89
2022/01/09 16:06:23;;;;;;;17.17;6.57;;;;;;;11.69;79.05;97841.47;6126679;23;20584;-89
2022/01/09 16:08:58;;;;;;;18.27;6.50;;;;;;;11.69;78.98;97848.50;6126920;23;20156;-89
2022/01/09 16:11:29;;;;;;;15.90;5.57;;;;;;;11.70;78.82;97840.53;6127020;23;20189;-89
2022/01/09 16:13:55;;;;;;;13.50;6.13;;;;;;;11.70;78.96;97839.69;6126536;23;20203;-89
2022/01/09 16:16:22;;;;;;;20.73;6.47;;;;;;;11.74;78.75;97840.28;6125213;23;20152;-89
2022/01/09 16:18:48;;;;;;;18.60;6.27;;;;;;;11.71;79.24;97841.38;6126571;23;20163;-89
2022/01/09 16:21:14;;;;;;;12.63;5.60;;;;;;;11.63;78.99;97831.41;6120909;23;20180;-88
2022/01/09 16:23:47;;;;;;;16.30;6.10;;;;;;;11.61;79.60;97841.19;6095219;23;20231;-89
2022/01/09 16:26:12;;;;;;;15.30;5.80;;;;;;;11.64;79.24;97835.72;6096093;23;20144;-89
2022/01/09 16:28:43;;;;;;;17.83;6.17;;;;;;;11.65;79.44;97836.56;6096196;23;20168;-90
2022/01/09 16:31:22;;;;;;;;;;;;;;;;;;;;;
2022/01/09 16:33:50;;;;;;;17.33;5.17;;;;;;;11.71;79.28;97834.31;6097306;23;20215;-89
2022/01/09 16:36:22;;;;;;;23.97;6.87;;;;;;;11.76;78.81;97830.50;6097250;23;20153;-89
2022/01/09 16:38:48;;;;;;;17.83;6.33;;;;;;;11.78;78.51;97829.44;6096299;23;20220;-89
2022/01/09 16:41:19;;;;;;;20.47;7.80;;;;;;;11.74;78.52;97835.03;6097405;23;20156;-89
2022/01/09 16:43:47;;;;;;;19.87;6.87;;;;;;;11.75;78.12;97834.06;6096941;23;20147;-89
2022/01/09 16:46:23;;;;;;;13.47;4.77;;;;;;;11.75;78.14;97834.91;6096759;23;20248;-89
2022/01/09 16:49:01;;;;;;;17.30;7.77;;;;;;;11.70;77.90;97831.81;6097525;23;20163;-89
2022/01/09 16:51:45;;;;;;;29.47;7.47;;;;;;;11.66;78.47;97825.91;6095777;23;20172;-90
2022/01/09 16:54:18;;;;;;;16.03;5.90;;;;;;;11.66;78.39;97836.41;6094151;23;20243;-90
2022/01/09 16:56:47;;;;;;;16.57;7.80;;;;;;;11.60;78.53;97831.66;6096204;23;20141;-89
2022/01/09 16:59:15;;;;;;;20.53;9.43;;;;;;;11.63;78.54;97826.16;6097033;23;20152;-90
2022/01/09 17:01:41;;;;;;;15.03;6.03;;;;;;;11.57;78.20;97821.41;6097367;23;20148;-89
2022/01/09 17:04:12;;;;;;;13.93;4.43;;;;;;;11.57;78.34;97826.66;6098041;23;20245;-89
2022/01/09 17:06:38;;;;;;;8.43;3.60;;;;;;;11.55;78.68;97825.94;6095723;23;20180;-89
2022/01/09 17:09:08;;;;;;;13.60;5.50;;;;;;;11.45;78.45;97819.69;6095768;23;20603;-88
2022/01/09 17:11:35;;;;;;;9.67;4.17;;;;;;;11.36;78.94;97822.22;6095726;23;20148;-89
2022/01/09 17:14:00;;;;;;;7.43;3.40;;;;;;;11.32;78.91;97824.22;6096830;23;20179;-89
2022/01/09 17:16:26;;;;;;;14.27;4.90;;;;;;;11.22;79.50;97830.28;6097240;23;20572;-89
2022/01/09 17:19:03;;;;;;;8.43;4.07;;;;;;;11.16;79.76;97831.59;6095618;23;20243;-89
2022/01/09 17:21:31;;;;;;;10.93;5.07;;;;;;;11.16;79.68;97831.59;6095679;23;20160;-89
2022/01/09 17:24:15;;;;;;;21.03;5.80;;;;;;;11.10;80.31;97832.06;6096920;23;20161;-90
2022/01/09 17:26:44;;;;;;;10.63;4.77;;;;;;;11.04;80.26;97827.25;6097558;23;20179;-89
2022/01/09 17:29:15;;;;;;;6.57;3.00;;;;;;;10.85;80.85;97837.44;6096828;23;20171;-90
2022/01/09 17:31:45;;;;;;;10.37;4.50;;;;;;;10.84;81.58;97833.16;6097497;23;20148;-89
2022/01/09 17:34:27;;;;;;;14.93;4.80;;;;;;;10.81;81.47;97831.63;6097092;23;20156;-90
2022/01/09 17:37:00;;;;;;;10.30;4.17;;;;;;;10.66;82.05;97842.41;6097239;23;20137;-89
2022/01/09 17:39:41;;;;;;;;;;;;;;;;;;;;;
2022/01/09 17:42:14;;;;;;;7.43;3.07;;;;;;;10.71;82.54;97840.28;6097172;23;20240;-89
2022/01/09 17:44:42;;;;;;;18.37;6.73;;;;;;;10.72;82.17;97842.75;6097185;23;20147;-89
2022/01/09 17:47:20;;;;;;;12.23;5.57;;;;;;;10.74;82.19;97830.41;6096496;23;20176;-89
2022/01/09 17:49:59;;;;;;;;;;;;;;;;;;;;;
2022/01/09 17:55:17;;;;;;;10.53;4.47;;;;;;;10.61;82.29;97831.41;6076443;23;20251;-89
2022/01/09 17:57:43;;;;;;;9.17;3.97;;;;;;;10.60;82.58;97834.97;6096907;23;20537;-89
2022/01/09 18:00:20;;;;;;;15.00;6.67;;;;;;;10.42;82.98;97835.38;6096852;23;20177;-89
2022/01/09 18:03:03;;;;;;;10.47;3.77;;;;;;;10.16;84.43;97836.41;6095883;23;20140;-90
2022/01/09 18:05:41;;;;;;;9.67;3.43;;;;;;;10.21;84.17;97829.06;6097564;23;20140;-90
2022/01/09 18:08:30;;;;;;;15.37;4.97;;;;;;;10.20;84.83;97826.53;6096914;23;20172;-90
2022/01/09 18:10:56;;;;;;;8.27;3.40;;;;;;;10.13;84.98;97818.31;6096682;23;20160;-89
2022/01/09 18:13:46;;;;;;;6.93;3.30;;;;;;;10.02;85.11;97820.81;6097701;23;20220;-89
2022/01/09 18:16:26;;;;;;;;;;;;;;;;;;;;;
2022/01/09 18:19:05;;;;;;;9.20;4.23;;;;;;;10.13;84.96;97815.69;6096591;23;20239;-90
2022/01/09 18:21:33;;;;;;;11.83;4.20;;;;;;;10.12;85.25;97814.00;6095523;23;20231;-89
2022/01/09 18:24:03;;;;;;;14.77;5.77;;;;;;;10.17;85.13;97809.28;6096910;23;20180;-89
2022/01/09 18:26:50;;;;;;;16.23;6.27;;;;;;;10.18;84.97;97816.19;6098698;23;20159;-89
2022/01/09 18:29:43;;;;;;;9.70;4.97;;;;;;;10.24;84.27;97817.53;6096150;23;20561;-89
2022/01/09 18:32:22;;;;;;;;;;;;;;;;;;;;;
2022/01/09 18:34:50;;;;;;;16.10;6.23;;;;;;;10.31;84.01;97824.00;6098245;23;20216;-89
2022/01/09 18:37:28;;;;;;;26.23;6.93;;;;;;;10.32;84.31;97818.66;6096517;23;20153;-89
2022/01/09 18:40:04;;;;;;;13.77;6.10;;;;;;;10.30;84.33;97828.38;6095870;23;20165;-90
2022/01/09 18:42:41;;;;;;;15.87;7.10;;;;;;;10.41;84.14;97822.38;6096528;23;20561;-89
2022/01/09 18:45:22;;;;;;;;;;;;;;;;;;;;;
2022/01/09 18:48:11;;;;;;;17.17;5.97;;;;;;;10.42;84.11;97819.66;6099067;23;20247;-90
2022/01/09 18:50:39;;;;;;;12.63;4.90;;;;;;;10.51;83.55;97812.91;6088576;23;20639;-90
2022/01/09 18:53:07;;;;;;;11.83;5.77;;;;;;;10.51;83.40;97812.09;6098493;23;20164;-90
2022/01/09 18:56:00;;;;;;;6.97;3.57;;;;;;;10.54;83.12;97811.84;6099154;23;20214;-89
2022/01/09 18:58:56;;;;;;;8.57;4.87;;;;;;;10.59;82.60;97813.16;6098394;23;20208;-89
2022/01/09 19:02:01;;;;;;;;;;;;;;;;;;;;;
2022/01/09 19:08:32;;;;;;;6.63;3.00;;;;;;;10.48;82.83;97813.97;6038644;23;20293;-90
2022/01/09 19:22:49;;;;;;;;;;;;;;;;;;;;;
2022/01/09 19:25:47;;;;;;;;;;;;;;;;;;;;;
2022/01/09 19:39:50;;;;;;;10.73;5.43;;;;;;;9.89;85.12;97783.38;5869217;24;20233;-89
2022/01/09 19:43:08;;;;;;;;;;;;;;;;;;;;;
2022/01/09 19:46:37;;;;;;;;;;;;;;;;;;;;;
2022/01/09 19:50:13;;;;;;;;;;;;;;;;;;;;;
2022/01/09 19:59:39;;;;;;;;;;;;;;;;;;;;;
2022/01/09 20:02:33;;;;;;;6.13;2.57;;;;;;;9.93;86.04;97773.53;6097621;23;20542;-90
2022/01/09 20:05:04;;;;;;;8.60;3.50;;;;;;;9.98;85.39;97772.25;6095172;23;20160;-89
2022/01/09 20:08:19;;;;;;;11.33;5.43;;;;;;;10.15;85.45;97774.53;6096102;23;20183;-90
2022/01/09 20:11:02;;;;;;;9.80;4.30;;;;;;;10.13;85.42;97776.41;6095863;23;20171;-89
2022/01/09 20:13:31;;;;;;;14.50;5.53;;;;;;;10.28;85.25;97775.28;6095530;23;20183;-89
2022/01/09 20:16:08;;;;;;;12.40;5.43;;;;;;;10.38;84.96;97772.84;6097287;23;20175;-90
2022/01/09 20:18:55;;;;;;;12.13;6.10;;;;;;;10.43;84.95;97775.94;6096380;23;20210;-89
2022/01/09 20:21:56;;;;;;;;;;;;;;;;;;;;;
2022/01/09 20:24:43;;;;;;;9.27;4.43;;;;;;;10.36;83.79;97765.09;6097347;23;20280;-89
2022/01/09 20:27:53;;;;;;;;;;;;;;;;;;;;;
2022/01/09 20:30:34;;;;;;;7.87;3.80;;;;;;;10.44;83.34;97765.38;6097551;23;20232;-90
2022/01/09 20:54:46;;;;;;;;;;;;;;;;;;;;;
2022/01/09 21:01:22;;;;;;;;;;;;;;;;;;;;;
2022/01/09 21:07:56;;;;;;;;;;;;;;;;;;;;;
2022/01/09 21:14:25;;;;;;;12.17;3.73;;;;;;;10.20;84.97;97724.44;5700606;25;20193;-90
2022/01/09 21:17:01;;;;;;;9.43;3.83;;;;;;;10.09;85.53;97719.94;5744733;24;20634;-89
2022/01/09 21:19:49;;;;;;;12.20;4.30;;;;;;;10.18;85.25;97721.94;5926989;24;20604;-90
2022/01/09 21:25:22;;;;;;;16.53;5.57;;;;;;;10.24;84.81;97716.25;6081980;23;20223;-89
2022/01/09 21:28:13;;;;;;;12.67;5.40;;;;;;;10.26;84.86;97726.59;6097541;23;20238;-90
2022/01/09 21:30:52;;;;;;;14.53;4.83;;;;;;;10.39;84.76;97724.75;6082848;23;20188;-89
2022/01/09 21:33:20;;;;;;;13.23;6.30;;;;;;;10.48;84.35;97730.13;6097291;23;20132;-89
2022/01/09 21:39:24;;;;;;;;;;;;;;;;;;;;;
2022/01/09 21:41:54;;;;;;;14.73;6.57;;;;;;;10.67;83.50;97711.25;6094114;23;20377;-90
2022/01/09 21:44:45;;;;;;;;;;;;;;;;;;;;;